This demonstration page uses our WeatherBlox Daily Observations layout. Learn more.

Hourly Observations for August 21, 2020

Temp ( °F °C ) Dew Point ( °F °C ) Humidity (%) Winds ( mph kmh ) Pressure ( in mb ) Visibility ( mi km ) Precip ( " mm )
12:51 am 00:51 Clear 87 30.6 51 10.6 29 29 NW 15 24 29.7 1006 10 16.0934 0 0
1:51 am 01:51 Clear 85 29.4 52 11.1 32 32 WNW 8 13 29.69 1006 10 16.0934 0 0
2:51 am 02:51 Clear 84 28.9 53 11.7 34 34 NW 14 22 29.67 1005 10 16.0934 0 0
3:51 am 03:51 Clear 82 27.8 54 12.2 38 38 W 12 19 29.69 1005 10 16.0934 0 0
4:51 am 04:51 Clear 79 26.1 55 12.8 44 44 WNW 9 15 29.7 1006 10 16.0934 0 0
5:51 am 05:51 Sunny 77 25 55 12.8 47 47 Calm 29.74 1007 10 16.0934 0 0
6:51 am 06:51 Sunny 80 26.7 56 13.3 44 44 Calm 29.76 1008 10 16.0934 0 0
7:51 am 07:51 Sunny 81 27.2 56 13.3 42 42 SE 3 6 29.77 1008 10 16.0934 0 0
8:51 am 08:51 Sunny 85 29.4 56 13.3 37 37 VRB 3 6 29.77 1008 10 16.0934 0 0
9:51 am 09:51 Sunny 92 33.3 56 13.3 30 30 WNW 13 20 29.75 1008 10 16.0934 0 0
10:51 am 10:51 Sunny 96 35.6 54 12.2 24 24 W 20 31 29.73 1007 10 16.0934 0 0
11:51 am 11:51 Sunny 99 37.2 51 10.6 20 20 NW 20 31 29.7 1006 10 16.0934 0 0
12:51 pm 12:51 Sunny 104 40 51 10.6 17 17 WNW 20 31 29.67 1005 10 16.0934 0 0
1:51 pm 13:51 Sunny 104 40 49 9.4 16 16 NW 21 33 29.64 1004 10 16.0934 0 0
2:51 pm 14:51 Sunny 105 40.6 51 10.6 16 16 WNW 21 33 29.62 1003 10 16.0934 0 0
3:51 pm 15:51 Sunny 103 39.4 54 12.2 20 20 WNW 18 30 29.61 1003 10 16.0934 0 0
4:51 pm 16:51 Sunny 101 38.3 55 12.8 22 22 WNW 23 37 29.62 1003 10 16.0934 0 0
5:51 pm 17:51 Sunny 98 36.7 57 13.9 25 25 WNW 25 41 29.62 1003 10 16.0934 0 0
6:51 pm 18:51 Sunny 95 35 57 13.9 28 28 NW 18 30 29.66 1004 10 16.0934 0 0
7:51 pm 19:51 Clear 93 33.9 58 14.4 31 31 NW 17 28 29.71 1006 10 16.0934 0 0
8:51 pm 20:51 Clear 90 32.2 60 15.6 37 37 WNW 16 26 29.7 1006 10 16.0934 0 0
9:51 pm 21:51 Clear 89 31.7 60 15.6 38 38 WNW 20 31 29.69 1006 10 16.0934 0 0
10:51 pm 22:51 Clear 88 31.1 60 15.6 39 39 NW 14 22 29.7 1006 10 16.0934 0 0
11:51 pm 23:51 Clear 87 30.6 59 15 39 39 NW 15 24 29.69 1005 10 16.0934 0 0

Powered by AerisWeather